createdAt,value
2018-12-14T00:01:25.607Z,7.80
2018-12-14T00:03:58.746Z,7.80
2018-12-14T00:06:31.686Z,7.90
2018-12-14T00:09:02.691Z,8.00
2018-12-14T00:11:33.541Z,8.00
2018-12-14T00:14:04.556Z,7.80
2018-12-14T00:16:35.421Z,7.70
2018-12-14T00:19:06.351Z,7.60
2018-12-14T00:21:37.171Z,7.50
2018-12-14T00:24:08.033Z,7.50
2018-12-14T00:26:38.856Z,7.50
2018-12-14T00:29:10.213Z,7.70
2018-12-14T00:31:41.232Z,7.80
2018-12-14T00:34:12.291Z,7.60
2018-12-14T00:36:43.112Z,7.50
2018-12-14T00:39:14.007Z,7.60
2018-12-14T00:41:44.762Z,7.60
2018-12-14T00:44:15.562Z,7.60
2018-12-14T00:46:46.361Z,7.50
2018-12-14T00:49:23.571Z,7.50
2018-12-14T00:51:54.322Z,7.50
2018-12-14T00:54:25.101Z,7.50
2018-12-14T00:56:55.773Z,7.40
2018-12-14T00:59:27.461Z,7.40
2018-12-14T01:01:58.406Z,7.40
2018-12-14T01:04:29.421Z,7.30
2018-12-14T01:07:00.053Z,7.30
2018-12-14T01:09:30.806Z,7.30
2018-12-14T01:12:01.502Z,7.30
2018-12-14T01:14:32.236Z,7.40
2018-12-14T01:17:02.911Z,7.40
2018-12-14T01:19:33.817Z,7.20
2018-12-14T01:22:04.636Z,7.10
2018-12-14T01:24:35.396Z,7.00
2018-12-14T01:27:06.461Z,6.90
2018-12-14T01:29:37.731Z,6.80
2018-12-14T01:32:07.966Z,6.80
2018-12-14T01:34:38.941Z,6.60
2018-12-14T01:37:09.886Z,6.40
2018-12-14T01:39:40.846Z,6.30
2018-12-14T01:42:11.646Z,6.20
2018-12-14T01:44:42.708Z,6.20
2018-12-14T01:47:13.550Z,6.20
2018-12-14T01:49:44.541Z,6.10
2018-12-14T01:52:15.402Z,6.00
2018-12-14T01:54:46.491Z,6.00
2018-12-14T01:57:17.671Z,6.10
2018-12-14T01:59:48.591Z,6.10
2018-12-14T02:02:19.407Z,6.00
2018-12-14T02:04:50.426Z,6.00
2018-12-14T02:07:21.111Z,5.90
2018-12-14T02:09:51.971Z,6.00
2018-12-14T02:12:22.653Z,5.90
2018-12-14T02:14:53.441Z,5.90
2018-12-14T02:17:24.236Z,5.80
2018-12-14T02:19:55.071Z,5.90
2018-12-14T02:22:25.886Z,6.00
2018-12-14T02:24:56.696Z,6.10
2018-12-14T02:27:27.476Z,6.10
2018-12-14T02:29:59.475Z,6.00
2018-12-14T02:32:30.296Z,6.00
2018-12-14T02:35:01.271Z,6.00
2018-12-14T02:37:32.221Z,5.90
2018-12-14T02:40:03.147Z,5.90
2018-12-14T02:42:34.010Z,5.80
2018-12-14T02:45:05.087Z,6.10
2018-12-14T02:47:36.086Z,5.90
2018-12-14T02:50:08.105Z,5.90
2018-12-14T02:52:39.060Z,6.10
2018-12-14T02:55:10.356Z,6.00
2018-12-14T02:57:41.071Z,6.00
2018-12-14T03:00:11.891Z,6.10
2018-12-14T03:02:44.863Z,6.10
2018-12-14T03:05:15.852Z,6.10
2018-12-14T03:07:46.601Z,6.00
2018-12-14T03:10:17.351Z,6.00
2018-12-14T03:12:48.061Z,6.10
2018-12-14T03:15:18.827Z,6.10
2018-12-14T03:17:49.561Z,6.10
2018-12-14T03:20:20.471Z,5.90
2018-12-14T03:22:51.183Z,6.00
2018-12-14T03:25:21.872Z,6.00
2018-12-14T03:27:52.646Z,5.80
2018-12-14T03:30:23.863Z,5.90
2018-12-14T03:32:54.576Z,5.90
2018-12-14T03:35:25.430Z,5.80
2018-12-14T03:37:56.083Z,5.80
2018-12-14T03:40:26.907Z,5.60
2018-12-14T03:42:57.667Z,5.70
2018-12-14T03:45:28.313Z,5.80
2018-12-14T03:47:59.017Z,6.00
2018-12-14T03:50:30.742Z,6.00
2018-12-14T03:53:01.514Z,5.90
2018-12-14T03:55:32.473Z,5.70
2018-12-14T03:58:03.243Z,6.00
2018-12-14T04:00:33.992Z,6.10
2018-12-14T04:03:04.811Z,6.10
2018-12-14T04:05:36.192Z,6.10
2018-12-14T04:08:06.903Z,6.10
2018-12-14T04:10:37.582Z,6.10
2018-12-14T04:13:08.308Z,5.90
2018-12-14T04:15:39.248Z,5.80
2018-12-14T04:18:10.358Z,5.90
2018-12-14T04:20:42.095Z,5.80
2018-12-14T04:23:13.372Z,6.00
2018-12-14T04:25:44.578Z,6.00
2018-12-14T04:28:18.314Z,6.20
2018-12-14T04:30:49.688Z,6.10
2018-12-14T04:33:20.519Z,6.20
2018-12-14T04:35:51.649Z,6.30
2018-12-14T04:38:24.556Z,6.20
2018-12-14T04:40:55.437Z,6.40
2018-12-14T04:43:26.374Z,6.30
2018-12-14T04:45:57.435Z,6.40
2018-12-14T04:48:28.312Z,6.20
2018-12-14T04:50:59.283Z,5.90
2018-12-14T04:53:30.098Z,6.10
2018-12-14T04:56:01.077Z,6.10
2018-12-14T04:58:32.009Z,6.10
2018-12-14T05:01:02.869Z,6.10
2018-12-14T05:03:33.751Z,6.10
2018-12-14T05:06:04.723Z,6.10
2018-12-14T05:08:35.617Z,6.20
2018-12-14T05:11:06.548Z,6.20
2018-12-14T05:13:37.332Z,6.30
2018-12-14T05:16:08.200Z,6.50
2018-12-14T05:18:38.942Z,6.50
2018-12-14T05:21:09.818Z,6.60
2018-12-14T05:23:40.672Z,6.60
2018-12-14T05:26:11.657Z,6.60
2018-12-14T05:28:42.427Z,6.70
2018-12-14T05:31:13.715Z,6.80
2018-12-14T05:33:44.597Z,6.90
2018-12-14T05:36:15.767Z,6.90
2018-12-14T05:38:47.632Z,6.90
2018-12-14T05:41:18.408Z,7.00
2018-12-14T05:43:49.327Z,7.10
2018-12-14T05:46:20.168Z,7.10
2018-12-14T05:48:50.973Z,7.30
2018-12-14T05:51:21.952Z,7.30
2018-12-14T05:53:52.888Z,7.40
2018-12-14T05:56:23.988Z,7.50
2018-12-14T05:58:54.828Z,7.50
2018-12-14T06:01:25.634Z,7.60
2018-12-14T06:03:56.913Z,7.80
2018-12-14T06:06:28.038Z,7.80
2018-12-14T06:08:58.848Z,7.90
2018-12-14T06:11:29.705Z,8.10
2018-12-14T06:14:00.687Z,8.20
2018-12-14T06:16:31.567Z,8.30
2018-12-14T06:19:02.312Z,8.30
2018-12-14T06:21:33.873Z,8.40
2018-12-14T06:24:04.714Z,8.50
2018-12-14T06:26:35.908Z,8.50
2018-12-14T06:29:06.782Z,8.70
2018-12-14T06:31:38.023Z,8.80
2018-12-14T06:34:08.884Z,8.90
2018-12-14T06:36:40.552Z,8.90
2018-12-14T06:39:11.557Z,9.00
2018-12-14T06:41:42.822Z,9.10
2018-12-14T06:44:13.867Z,9.10
2018-12-14T06:46:45.022Z,9.20
2018-12-14T06:49:15.910Z,9.30
2018-12-14T06:51:47.023Z,9.40
2018-12-14T06:54:18.222Z,9.50
2018-12-14T06:56:49.456Z,9.60
2018-12-14T06:59:20.443Z,9.60
2018-12-14T07:01:51.602Z,9.80
2018-12-14T07:04:22.812Z,9.90
2018-12-14T07:06:54.097Z,10.00
2018-12-14T07:09:25.044Z,10.10
2018-12-14T07:11:55.952Z,10.20
2018-12-14T07:14:26.924Z,10.10
2018-12-14T07:16:57.954Z,10.20
2018-12-14T07:19:28.794Z,10.40
2018-12-14T07:21:59.747Z,10.50
2018-12-14T07:24:30.567Z,10.60
2018-12-14T07:27:01.753Z,10.60
2018-12-14T07:29:32.654Z,10.90
2018-12-14T07:32:04.027Z,10.90
2018-12-14T07:34:34.864Z,10.90
2018-12-14T07:37:06.317Z,11.00
2018-12-14T07:39:37.196Z,11.10
2018-12-14T07:42:08.152Z,11.10
2018-12-14T07:44:39.139Z,11.10
2018-12-14T07:47:11.836Z,11.10
2018-12-14T07:49:42.767Z,11.10
2018-12-14T07:52:13.688Z,11.20
2018-12-14T07:54:44.587Z,11.30
2018-12-14T07:57:15.577Z,11.20
2018-12-14T07:59:46.386Z,11.30
2018-12-14T08:02:17.462Z,11.30
2018-12-14T08:04:48.407Z,11.40
2018-12-14T08:07:19.515Z,11.40
2018-12-14T08:09:50.443Z,11.50
2018-12-14T08:12:21.537Z,11.60
2018-12-14T08:14:52.848Z,11.60
2018-12-14T08:17:23.813Z,11.70
2018-12-14T08:19:54.748Z,11.80
2018-12-14T08:22:25.689Z,11.80
2018-12-14T08:24:56.487Z,11.80
2018-12-14T08:27:27.562Z,11.90
2018-12-14T08:29:58.388Z,12.10
2018-12-14T08:32:29.862Z,12.00
2018-12-14T08:35:00.770Z,12.00
2018-12-14T08:37:32.172Z,12.10
2018-12-14T08:40:03.097Z,12.20
2018-12-14T08:42:34.246Z,12.20
2018-12-14T08:45:05.353Z,12.30
2018-12-14T08:47:36.602Z,12.40
2018-12-14T08:50:07.789Z,12.30
2018-12-14T08:52:38.871Z,12.20
2018-12-14T08:55:09.728Z,12.20
2018-12-14T08:57:40.779Z,12.40
2018-12-14T09:00:11.732Z,12.30
2018-12-14T09:02:42.859Z,12.30
2018-12-14T09:05:13.658Z,12.40
2018-12-14T09:07:44.878Z,12.50
2018-12-14T09:10:15.978Z,12.40
2018-12-14T09:12:47.173Z,12.40
2018-12-14T09:15:18.003Z,12.50
2018-12-14T09:17:49.048Z,12.50
2018-12-14T09:20:19.903Z,12.70
2018-12-14T09:22:51.018Z,12.70
2018-12-14T09:25:21.903Z,12.70
2018-12-14T09:27:52.778Z,12.70
2018-12-14T09:30:23.673Z,12.70
2018-12-14T09:32:55.105Z,12.70
2018-12-14T09:35:26.014Z,12.60
2018-12-14T09:37:57.073Z,12.60
2018-12-14T09:40:27.893Z,12.70
2018-12-14T09:42:58.743Z,12.70
2018-12-14T09:45:29.574Z,12.70
2018-12-14T09:48:00.653Z,12.80
2018-12-14T09:50:31.415Z,12.90
2018-12-14T09:53:02.213Z,13.00
2018-12-14T09:55:33.008Z,12.80
2018-12-14T09:58:04.898Z,12.90
2018-12-14T10:00:35.773Z,12.90
2018-12-14T10:03:06.768Z,13.00
2018-12-14T10:05:37.883Z,13.00
2018-12-14T10:08:08.907Z,13.00
2018-12-14T10:10:39.924Z,13.00
2018-12-14T10:13:10.762Z,13.00
2018-12-14T10:15:41.656Z,13.00
2018-12-14T10:18:12.604Z,13.10
2018-12-14T10:20:43.397Z,13.10
2018-12-14T10:23:14.192Z,13.00
2018-12-14T10:25:44.959Z,13.00
2018-12-14T10:28:15.927Z,13.10
2018-12-14T10:30:46.752Z,13.10
2018-12-14T10:33:18.107Z,13.10
2018-12-14T10:35:49.093Z,13.20
2018-12-14T10:38:20.283Z,13.20
2018-12-14T10:40:51.064Z,13.30
2018-12-14T10:43:22.092Z,13.30
2018-12-14T10:45:53.237Z,13.30
2018-12-14T10:48:24.297Z,13.20
2018-12-14T10:50:55.042Z,13.40
2018-12-14T10:53:26.103Z,13.40
2018-12-14T10:55:58.227Z,13.50
2018-12-14T10:58:30.333Z,13.40
2018-12-14T11:01:06.147Z,13.40
2018-12-14T11:03:37.204Z,13.40
2018-12-14T11:06:08.307Z,13.50
2018-12-14T11:08:39.502Z,13.50
2018-12-14T11:11:10.882Z,13.50
2018-12-14T11:13:41.807Z,13.50
2018-12-14T11:16:12.637Z,13.50
2018-12-14T11:18:43.572Z,13.50
2018-12-14T11:21:14.302Z,13.40
2018-12-14T11:23:45.667Z,13.40
2018-12-14T11:26:16.942Z,13.50
2018-12-14T11:28:48.207Z,13.60
2018-12-14T11:31:19.226Z,13.60
2018-12-14T11:33:50.842Z,13.60
2018-12-14T11:36:21.872Z,13.60
2018-12-14T11:38:53.358Z,13.70
2018-12-14T11:41:24.487Z,13.70
2018-12-14T11:43:55.708Z,13.70
2018-12-14T11:46:26.892Z,13.80
2018-12-14T11:48:57.838Z,13.80
2018-12-14T11:51:29.081Z,13.80
2018-12-14T11:54:00.191Z,13.70
2018-12-14T11:56:31.298Z,13.80
2018-12-14T11:59:02.242Z,13.80
2018-12-14T12:01:33.367Z,13.80
2018-12-14T12:04:04.222Z,13.80
2018-12-14T12:06:35.008Z,13.80
2018-12-14T12:09:09.712Z,13.90
2018-12-14T12:11:42.032Z,13.90
2018-12-14T12:14:12.926Z,13.90
2018-12-14T12:16:43.692Z,13.90
2018-12-14T12:19:14.598Z,13.90
2018-12-14T12:21:45.572Z,13.90
2018-12-14T12:24:16.954Z,13.90
2018-12-14T12:26:47.872Z,13.90
2018-12-14T12:29:18.802Z,13.90
2018-12-14T12:31:49.802Z,13.90
2018-12-14T12:34:21.292Z,13.80
2018-12-14T12:36:52.302Z,13.80
2018-12-14T12:39:23.532Z,13.80
2018-12-14T12:41:54.418Z,13.70
2018-12-14T12:44:33.284Z,13.70
2018-12-14T12:47:00.296Z,13.80
2018-12-14T12:49:31.192Z,13.80
2018-12-14T12:52:01.992Z,13.80
2018-12-14T12:54:32.937Z,13.70
2018-12-14T12:57:03.841Z,13.70
2018-12-14T12:59:34.966Z,13.80
2018-12-14T13:02:05.867Z,13.80
2018-12-14T13:04:36.991Z,13.70
2018-12-14T13:07:08.176Z,13.70
2018-12-14T13:09:39.452Z,13.70
2018-12-14T13:12:10.436Z,13.70
2018-12-14T13:14:42.077Z,13.70
2018-12-14T13:17:12.851Z,13.70
2018-12-14T13:19:43.907Z,13.70
2018-12-14T13:22:14.798Z,13.70
2018-12-14T13:24:45.836Z,13.60
2018-12-14T13:27:20.339Z,13.60
2018-12-14T13:29:51.532Z,13.60
2018-12-14T13:32:22.311Z,13.60
2018-12-14T13:34:53.674Z,13.50
2018-12-14T13:37:24.477Z,13.50
2018-12-14T13:39:55.706Z,13.50
2018-12-14T13:42:26.501Z,13.50
2018-12-14T13:44:57.864Z,13.40
2018-12-14T13:47:28.789Z,13.40
2018-12-14T13:49:59.828Z,13.40
2018-12-14T13:52:30.632Z,13.40
2018-12-14T13:55:01.371Z,13.30
2018-12-14T13:57:32.226Z,13.30
2018-12-14T14:00:03.377Z,13.30
2018-12-14T14:02:34.211Z,13.20
2018-12-14T14:05:05.152Z,13.20
2018-12-14T14:07:35.951Z,13.10
2018-12-14T14:10:07.791Z,13.10
2018-12-14T14:12:38.717Z,13.00
2018-12-14T14:15:10.518Z,13.00
2018-12-14T14:17:41.441Z,13.00
2018-12-14T14:20:12.411Z,12.90
2018-12-14T14:22:43.331Z,12.90
2018-12-14T14:25:17.470Z,12.80
2018-12-14T14:27:46.986Z,12.80
2018-12-14T14:30:17.867Z,12.70
2018-12-14T14:32:48.813Z,12.60
2018-12-14T14:35:20.401Z,12.60
2018-12-14T14:37:57.258Z,12.60
2018-12-14T14:40:24.502Z,12.50
2018-12-14T14:42:55.291Z,12.50
2018-12-14T14:45:26.236Z,12.40
2018-12-14T14:47:57.231Z,12.50
2018-12-14T14:50:28.112Z,12.40
2018-12-14T14:52:59.077Z,12.30
2018-12-14T14:55:29.953Z,12.30
2018-12-14T14:58:00.761Z,12.30
2018-12-14T15:00:33.562Z,12.10
2018-12-14T15:03:04.827Z,12.20
2018-12-14T15:05:35.717Z,12.10
2018-12-14T15:08:06.621Z,12.10
2018-12-14T15:10:37.572Z,12.00
2018-12-14T15:13:08.528Z,11.90
2018-12-14T15:15:39.348Z,12.00
2018-12-14T15:18:10.252Z,12.00
2018-12-14T15:20:41.116Z,12.00
2018-12-14T15:23:11.893Z,12.00
2018-12-14T15:25:42.832Z,11.90
2018-12-14T15:28:13.676Z,11.90
2018-12-14T15:30:44.722Z,11.90
2018-12-14T15:33:15.482Z,11.80
2018-12-14T15:35:46.707Z,11.80
2018-12-14T15:38:17.383Z,11.80
2018-12-14T15:40:48.497Z,11.80
2018-12-14T15:43:19.337Z,11.80
2018-12-14T15:45:50.266Z,11.70
2018-12-14T15:48:20.998Z,11.70
2018-12-14T15:50:52.163Z,11.80
2018-12-14T15:53:22.908Z,11.70
2018-12-14T15:55:53.712Z,11.70
2018-12-14T15:58:24.631Z,11.70
2018-12-14T16:00:55.581Z,11.60
2018-12-14T16:03:26.262Z,11.60
2018-12-14T16:05:57.111Z,11.60
2018-12-14T16:08:27.886Z,11.60
2018-12-14T16:10:58.771Z,11.60
2018-12-14T16:13:29.537Z,11.60
2018-12-14T16:16:00.334Z,11.60
2018-12-14T16:18:31.212Z,11.50
2018-12-14T16:21:02.292Z,11.50
2018-12-14T16:23:33.233Z,11.50
2018-12-14T16:26:04.187Z,11.50
2018-12-14T16:28:35.082Z,11.50
2018-12-14T16:31:06.156Z,11.40
2018-12-14T16:33:38.287Z,11.40
2018-12-14T16:36:09.830Z,11.40
2018-12-14T16:38:40.931Z,11.40
2018-12-14T16:41:12.192Z,11.30
2018-12-14T16:43:43.188Z,11.30
2018-12-14T16:46:14.318Z,11.30
2018-12-14T16:48:46.087Z,11.30
2018-12-14T16:51:17.127Z,11.30
2018-12-14T16:53:52.882Z,11.30
2018-12-14T16:56:23.951Z,11.30
2018-12-14T16:58:54.807Z,11.20
2018-12-14T17:01:25.813Z,11.20
2018-12-14T17:03:56.762Z,11.10
2018-12-14T17:06:27.924Z,11.10
2018-12-14T17:08:58.823Z,11.10
2018-12-14T17:11:30.333Z,11.10
2018-12-14T17:14:02.940Z,11.10
2018-12-14T17:16:33.914Z,11.00
2018-12-14T17:19:05.279Z,11.10
2018-12-14T17:21:36.673Z,11.00
2018-12-14T17:24:08.357Z,11.10
2018-12-14T17:26:39.633Z,11.10
2018-12-14T17:29:10.713Z,11.00
2018-12-14T17:31:41.728Z,11.00
2018-12-14T17:34:12.528Z,11.00
2018-12-14T17:36:43.868Z,11.00
2018-12-14T17:39:16.292Z,10.90
2018-12-14T17:41:49.513Z,11.00
2018-12-14T17:44:20.315Z,11.00
2018-12-14T17:46:51.683Z,10.90
2018-12-14T17:49:22.518Z,10.90
2018-12-14T17:51:53.673Z,10.90
2018-12-14T17:54:24.889Z,10.90
2018-12-14T17:56:55.833Z,10.90
2018-12-14T17:59:27.024Z,10.90
2018-12-14T18:01:58.348Z,10.90
2018-12-14T18:04:29.558Z,10.80
2018-12-14T18:07:00.478Z,10.80
2018-12-14T18:09:31.385Z,10.80
2018-12-14T18:12:02.468Z,10.80
2018-12-14T18:14:33.508Z,10.70
2018-12-14T18:17:04.808Z,10.80
2018-12-14T18:19:35.493Z,10.80
2018-12-14T18:22:06.308Z,10.80
2018-12-14T18:24:37.153Z,10.80
2018-12-14T18:27:08.058Z,10.80
2018-12-14T18:29:38.945Z,10.80
2018-12-14T18:32:09.883Z,10.70
2018-12-14T18:34:41.073Z,10.70
2018-12-14T18:37:12.175Z,10.80
2018-12-14T18:39:42.978Z,10.80
2018-12-14T18:42:13.983Z,10.80
2018-12-14T18:44:46.349Z,10.70
2018-12-14T18:47:18.133Z,10.70
2018-12-14T18:49:49.327Z,10.70
2018-12-14T18:52:20.275Z,10.70
2018-12-14T18:54:51.108Z,10.70
2018-12-14T18:57:22.261Z,10.70
2018-12-14T18:59:52.994Z,10.60
2018-12-14T19:02:30.583Z,10.60
2018-12-14T19:05:01.822Z,10.60
2018-12-14T19:07:32.903Z,10.70
2018-12-14T19:10:04.649Z,10.60
2018-12-14T19:12:36.223Z,10.60
2018-12-14T19:15:07.693Z,10.60
2018-12-14T19:17:38.893Z,10.60
2018-12-14T19:20:10.288Z,10.60
2018-12-14T19:22:41.533Z,10.60
2018-12-14T19:25:12.448Z,10.60
2018-12-14T19:27:43.493Z,10.50
2018-12-14T19:30:14.743Z,10.60
2018-12-14T19:32:45.654Z,10.50
2018-12-14T19:35:16.538Z,10.50
2018-12-14T19:37:47.989Z,10.50
2018-12-14T19:40:18.888Z,10.50
2018-12-14T19:42:50.608Z,10.50
2018-12-14T19:45:21.448Z,10.60
2018-12-14T19:47:52.468Z,10.60
2018-12-14T19:50:23.908Z,10.50
2018-12-14T19:52:55.085Z,10.40
2018-12-14T19:55:25.939Z,10.40
2018-12-14T19:57:56.953Z,10.50
2018-12-14T20:00:27.798Z,10.50
2018-12-14T20:02:58.813Z,10.50
2018-12-14T20:05:29.701Z,10.40
2018-12-14T20:08:00.688Z,10.40
2018-12-14T20:10:31.798Z,10.40
2018-12-14T20:13:02.828Z,10.40
2018-12-14T20:15:34.223Z,10.40
2018-12-14T20:18:05.279Z,10.40
2018-12-14T20:20:36.389Z,10.40
2018-12-14T20:23:07.809Z,10.40
2018-12-14T20:25:38.913Z,10.30
2018-12-14T20:28:10.753Z,10.40
2018-12-14T20:30:41.653Z,10.30
2018-12-14T20:33:13.502Z,10.40
2018-12-14T20:35:44.483Z,10.30
2018-12-14T20:38:16.665Z,10.30
2018-12-14T20:40:47.583Z,10.30
2018-12-14T20:43:18.913Z,10.30
2018-12-14T20:45:50.593Z,10.30
2018-12-14T20:48:21.933Z,10.20
2018-12-14T20:50:53.319Z,10.30
2018-12-14T20:53:25.382Z,10.30
2018-12-14T20:55:57.568Z,10.30
2018-12-14T20:58:28.548Z,10.20
2018-12-14T21:01:01.043Z,10.30
2018-12-14T21:03:32.268Z,10.30
2018-12-14T21:06:03.203Z,10.30
2018-12-14T21:08:34.633Z,10.20
2018-12-14T21:11:05.729Z,10.20
2018-12-14T21:13:37.308Z,10.20
2018-12-14T21:16:08.223Z,10.20
2018-12-14T21:18:39.823Z,10.10
2018-12-14T21:21:10.663Z,10.10
2018-12-14T21:23:42.037Z,10.10
2018-12-14T21:26:13.809Z,10.10
2018-12-14T21:28:45.752Z,10.10
2018-12-14T21:31:18.283Z,10.00
2018-12-14T21:33:49.288Z,10.10
2018-12-14T21:36:20.043Z,10.00
2018-12-14T21:38:52.387Z,10.00
2018-12-14T21:41:23.203Z,10.00
2018-12-14T21:43:54.467Z,10.00
2018-12-14T21:46:32.411Z,9.90
2018-12-14T21:48:59.077Z,9.80
2018-12-14T21:51:30.018Z,9.90
2018-12-14T21:54:02.375Z,9.90
2018-12-14T21:56:33.717Z,9.90
2018-12-14T21:59:04.793Z,9.80
2018-12-14T22:01:36.528Z,9.90
2018-12-14T22:04:07.788Z,9.80
2018-12-14T22:06:38.542Z,9.90
2018-12-14T22:09:11.448Z,9.90
2018-12-14T22:11:42.383Z,9.80
2018-12-14T22:14:14.498Z,9.80
2018-12-14T22:16:45.948Z,9.90
2018-12-14T22:19:17.222Z,9.80
2018-12-14T22:21:48.143Z,9.80
2018-12-14T22:24:19.958Z,9.80
2018-12-14T22:26:51.948Z,9.80
2018-12-14T22:29:24.973Z,9.80
2018-12-14T22:31:56.373Z,9.80
2018-12-14T22:34:28.733Z,9.80
2018-12-14T22:36:59.822Z,9.80
2018-12-14T22:39:32.173Z,9.80
2018-12-14T22:42:03.403Z,9.80
2018-12-14T22:44:34.563Z,9.70
2018-12-14T22:47:05.405Z,9.80
2018-12-14T22:49:36.377Z,9.70
2018-12-14T22:52:07.127Z,9.70
2018-12-14T22:54:38.086Z,9.70
2018-12-14T22:57:08.893Z,9.80
2018-12-14T22:59:39.801Z,9.80
2018-12-14T23:02:10.613Z,9.70
2018-12-14T23:04:41.630Z,9.70
2018-12-14T23:07:12.473Z,9.70
2018-12-14T23:09:43.398Z,9.70
2018-12-14T23:12:14.230Z,9.60
2018-12-14T23:14:45.247Z,9.60
2018-12-14T23:17:16.048Z,9.70
2018-12-14T23:19:46.948Z,9.70
2018-12-14T23:22:17.748Z,9.60
2018-12-14T23:24:48.648Z,9.60
2018-12-14T23:27:19.503Z,9.50
2018-12-14T23:29:50.417Z,9.40
2018-12-14T23:32:21.247Z,9.50
2018-12-14T23:34:52.092Z,9.40
2018-12-14T23:37:22.824Z,9.40
2018-12-14T23:39:54.893Z,9.40
2018-12-14T23:42:25.607Z,9.40
2018-12-14T23:44:56.632Z,9.40
2018-12-14T23:47:27.452Z,9.40
2018-12-14T23:49:58.158Z,9.40
2018-12-14T23:52:29.056Z,9.40
2018-12-14T23:54:59.943Z,9.40
2018-12-14T23:57:30.748Z,9.50
